Time;durP1;ratioP1;P1;durP2;ratioP2;P2;SDS_P1;SDS_P2;PMS_P1;PMS_P2;Temp;Humidity;BMP_temperature;BMP_pressure;BME280_temperature;BME280_humidity;BME280_pressure;Samples;Min_cycle;Max_cycle;Signal;HPM_P1;HPM_P2
2021/05/06 00:08:22;;;;;;;6.68;1.90;;;;;;;;;;5058353;28;20032;-74
2021/05/06 00:33:06;;;;;;;5.97;2.00;;;;;;;;;;5059436;28;20094;-72
2021/05/06 00:35:35;;;;;;;2.05;1.70;;;;;;;;;;5054037;28;20042;-75
2021/05/06 00:43:33;;;;;;;3.90;2.13;;;;;;;;;;5054071;28;20048;-75
2021/05/06 01:04:35;;;;;;;5.40;2.40;;;;;;;;;;5059030;28;20497;-74
2021/05/06 01:09:51;;;;;;;3.22;2.45;;;;;;;;;;5059532;28;20025;-75
2021/05/06 01:12:17;;;;;;;5.97;2.17;;;;;;;;;;5055346;28;20045;-75
2021/05/06 01:14:44;;;;;;;5.82;2.22;;;;;;;;;;5051026;28;20049;-74
2021/05/06 01:17:14;;;;;;;2.58;2.05;;;;;;;;;;5045344;28;20025;-75
2021/05/06 01:19:41;;;;;;;4.65;2.08;;;;;;;;;;5064217;28;20339;-74
2021/05/06 01:22:10;;;;;;;4.00;2.00;;;;;;;;;;5036222;28;20125;-76
2021/05/06 01:24:37;;;;;;;5.05;1.90;;;;;;;;;;5047108;28;20025;-75
2021/05/06 01:29:34;;;;;;;2.53;1.90;;;;;;;;;;5062274;28;20454;-75
2021/05/06 01:32:15;;;;;;;4.15;2.05;;;;;;;;;;5041117;28;20033;-76
2021/05/06 01:34:46;;;;;;;1.85;1.73;;;;;;;;;;5071691;28;20091;-75
2021/05/06 01:37:28;;;;;;;5.00;2.10;;;;;;;;;;5039493;28;20021;-75
2021/05/06 01:42:30;;;;;;;4.88;2.05;;;;;;;;;;5049133;28;20033;-75
2021/05/06 01:48:04;;;;;;;3.08;2.00;;;;;;;;;;5063327;28;20067;-74
2021/05/06 02:01:02;;;;;;;2.20;1.70;;;;;;;;;;5067212;28;20037;-74
2021/05/06 02:03:29;;;;;;;3.77;1.93;;;;;;;;;;5039099;28;20013;-74
2021/05/06 02:05:57;;;;;;;3.38;2.10;;;;;;;;;;5050542;28;20406;-75
2021/05/06 02:08:24;;;;;;;3.08;1.98;;;;;;;;;;5063344;28;20028;-75
2021/05/06 02:10:54;;;;;;;3.58;1.80;;;;;;;;;;5055806;28;20087;-73
2021/05/06 02:13:20;;;;;;;2.97;2.05;;;;;;;;;;5060825;28;20025;-75
2021/05/06 02:15:55;;;;;;;3.08;1.85;;;;;;;;;;5038552;28;20037;-71
2021/05/06 02:18:24;;;;;;;3.95;1.98;;;;;;;;;;5068645;28;20024;-74
2021/05/06 02:20:51;;;;;;;2.97;1.65;;;;;;;;;;5049154;28;20036;-73
2021/05/06 02:23:20;;;;;;;4.90;2.10;;;;;;;;;;5048641;28;20044;-75
2021/05/06 02:25:47;;;;;;;4.30;2.25;;;;;;;;;;5044872;28;20020;-75
2021/05/06 02:28:15;;;;;;;3.22;2.00;;;;;;;;;;5066336;28;20021;-74
2021/05/06 02:30:43;;;;;;;3.08;1.90;;;;;;;;;;5062468;28;20033;-73
2021/05/06 02:33:11;;;;;;;2.35;1.75;;;;;;;;;;5041740;28;20032;-74
2021/05/06 02:35:41;;;;;;;4.05;2.03;;;;;;;;;;5049759;28;20045;-75
2021/05/06 02:38:08;;;;;;;3.38;1.63;;;;;;;;;;5041525;28;20067;-74
2021/05/06 02:40:35;;;;;;;4.60;1.90;;;;;;;;;;5062762;28;20055;-75
2021/05/06 02:43:16;;;;;;;4.35;1.85;;;;;;;;;;5043005;28;20116;-76
2021/05/06 02:45:42;;;;;;;2.58;2.00;;;;;;;;;;5034074;28;20044;-72
2021/05/06 02:48:11;;;;;;;4.85;2.08;;;;;;;;;;5054737;28;20484;-74
2021/05/06 02:50:58;;;;;;;3.42;1.98;;;;;;;;;;5038612;28;20397;-75
2021/05/06 02:53:29;;;;;;;3.78;1.95;;;;;;;;;;5039972;28;20129;-74
2021/05/06 02:56:08;;;;;;;3.60;2.13;;;;;;;;;;5066672;28;20029;-77
2021/05/06 03:04:05;;;;;;;4.32;1.95;;;;;;;;;;5056201;28;20040;-77
2021/05/06 03:06:40;;;;;;;3.25;2.00;;;;;;;;;;5060125;28;20040;-77
2021/05/06 03:09:22;;;;;;;3.55;1.95;;;;;;;;;;5040119;28;20052;-75
2021/05/06 03:12:41;;;;;;;3.15;1.80;;;;;;;;;;5035588;28;20609;-73
2021/05/06 03:22:53;;;;;;;2.72;1.65;;;;;;;;;;5063593;28;20039;-76
2021/05/06 03:25:23;;;;;;;2.60;1.83;;;;;;;;;;5034533;28;20029;-75
2021/05/06 04:27:35;;;;;;;2.60;1.95;;;;;;;;;;4976599;28;20062;-77
2021/05/06 04:35:39;;;;;;;2.13;1.73;;;;;;;;;;4970979;28;20086;-77
2021/05/06 04:38:21;;;;;;;5.63;1.92;;;;;;;;;;4982321;28;20035;-76
2021/05/06 04:55:39;;;;;;;6.00;2.15;;;;;;;;;;4970729;28;20059;-75
2021/05/06 05:03:39;;;;;;;4.28;1.98;;;;;;;;;;4954893;28;20095;-76
2021/05/06 05:06:21;;;;;;;6.45;2.20;;;;;;;;;;4967305;28;20043;-78
2021/05/06 05:11:36;;;;;;;3.30;1.90;;;;;;;;;;4967684;28;20039;-77
2021/05/06 05:19:45;;;;;;;6.93;2.70;;;;;;;;;;4987321;28;20085;-74
2021/05/06 05:27:23;;;;;;;3.25;2.10;;;;;;;;;;5001100;28;20035;-76
2021/05/06 05:29:53;;;;;;;5.00;2.17;;;;;;;;;;5004706;28;20025;-75
2021/05/06 05:32:20;;;;;;;4.97;1.92;;;;;;;;;;4991878;28;20630;-74
2021/05/06 05:34:56;;;;;;;3.92;2.30;;;;;;;;;;4999207;28;20026;-72
2021/05/06 05:37:42;;;;;;;4.10;2.35;;;;;;;;;;5005249;28;20085;-73
2021/05/06 05:40:31;;;;;;;4.63;2.30;;;;;;;;;;5009660;28;20041;-77
2021/05/06 05:43:32;;;;;;;5.30;2.58;;;;;;;;;;5000464;28;20036;-75
2021/05/06 05:46:44;;;;;;;2.60;1.90;;;;;;;;;;5005149;28;20032;-78
2021/05/06 05:56:37;;;;;;;50.95;28.35;;;;;;;;;;5033262;28;20030;-77
2021/05/06 05:59:03;;;;;;;19.05;13.30;;;;;;;;;;5000599;28;20041;-74
2021/05/06 06:01:29;;;;;;;51.10;28.88;;;;;;;;;;5020916;28;20041;-75
2021/05/06 06:03:56;;;;;;;69.07;41.10;;;;;;;;;;5017874;28;20029;-75
2021/05/06 06:06:24;;;;;;;47.05;26.80;;;;;;;;;;5019472;28;20455;-74
2021/05/06 06:08:50;;;;;;;67.47;37.58;;;;;;;;;;5031153;28;20498;-74
2021/05/06 06:11:17;;;;;;;69.07;41.35;;;;;;;;;;5027890;28;20383;-74
2021/05/06 06:13:44;;;;;;;20.63;11.80;;;;;;;;;;5011488;28;20131;-76
2021/05/06 06:16:24;;;;;;;14.43;8.82;;;;;;;;;;5029382;28;20033;-78
2021/05/06 06:19:03;;;;;;;10.02;4.85;;;;;;;;;;5029213;28;20048;-77
2021/05/06 06:24:03;;;;;;;6.68;4.20;;;;;;;;;;5013659;28;20049;-76
2021/05/06 06:26:30;;;;;;;8.27;3.20;;;;;;;;;;5018086;28;20022;-77
2021/05/06 06:29:02;;;;;;;6.35;3.80;;;;;;;;;;4996663;28;20076;-76
2021/05/06 06:31:46;;;;;;;17.30;8.40;;;;;;;;;;5021478;28;20030;-77
2021/05/06 06:34:12;;;;;;;7.00;3.00;;;;;;;;;;5010122;28;20068;-76
2021/05/06 06:36:46;;;;;;;5.10;2.78;;;;;;;;;;5025732;28;20061;-75
2021/05/06 06:39:17;;;;;;;6.72;3.00;;;;;;;;;;4991314;28;20030;-78
2021/05/06 06:41:48;;;;;;;11.38;5.28;;;;;;;;;;5024114;28;20042;-77
2021/05/06 06:44:34;;;;;;;24.50;11.30;;;;;;;;;;5021072;28;20033;-73
2021/05/06 06:47:01;;;;;;;14.95;5.70;;;;;;;;;;5022974;28;20034;-76
2021/05/06 06:49:37;;;;;;;6.45;4.32;;;;;;;;;;5019926;28;20507;-76
2021/05/06 06:52:05;;;;;;;10.65;4.55;;;;;;;;;;4980820;28;20046;-76
2021/05/06 06:54:31;;;;;;;6.38;2.83;;;;;;;;;;5001416;28;20543;-76
2021/05/06 06:57:18;;;;;;;6.18;3.10;;;;;;;;;;5017539;28;20029;-79
2021/05/06 06:59:45;;;;;;;8.93;4.47;;;;;;;;;;5017830;28;20038;-75
2021/05/06 07:02:13;;;;;;;7.25;3.90;;;;;;;;;;5007126;28;20392;-75
2021/05/06 07:05:00;;;;;;;4.57;2.85;;;;;;;;;;5006490;28;20484;-74
2021/05/06 07:07:27;;;;;;;7.32;3.47;;;;;;;;;;5005165;28;20023;-78
2021/05/06 07:09:53;;;;;;;9.13;5.60;;;;;;;;;;5005512;28;20027;-76
2021/05/06 07:12:19;;;;;;;11.48;6.55;;;;;;;;;;4992604;28;21321;-77
2021/05/06 07:14:45;;;;;;;6.20;3.88;;;;;;;;;;5004785;28;20038;-75
2021/05/06 07:17:11;;;;;;;8.70;4.25;;;;;;;;;;5006150;28;20034;-75
2021/05/06 07:19:37;;;;;;;8.80;4.15;;;;;;;;;;5013650;28;20037;-77
2021/05/06 07:22:10;;;;;;;6.63;3.30;;;;;;;;;;5001730;28;20032;-78
2021/05/06 07:24:56;;;;;;;4.93;2.33;;;;;;;;;;5010465;28;20019;-75
2021/05/06 07:27:25;;;;;;;4.03;2.45;;;;;;;;;;5017281;28;20034;-76
2021/05/06 07:29:51;;;;;;;4.93;2.65;;;;;;;;;;4994062;28;20027;-75
2021/05/06 07:32:17;;;;;;;9.18;2.60;;;;;;;;;;5004565;28;20080;-76
2021/05/06 07:34:46;;;;;;;4.40;2.30;;;;;;;;;;5004870;28;20033;-75
2021/05/06 07:37:12;;;;;;;4.80;2.50;;;;;;;;;;5017193;28;20002;-76
2021/05/06 07:39:39;;;;;;;8.32;3.08;;;;;;;;;;5002154;28;20061;-75
2021/05/06 07:42:11;;;;;;;5.65;2.40;;;;;;;;;;4983604;28;20101;-75
2021/05/06 07:44:37;;;;;;;7.18;2.65;;;;;;;;;;5005262;28;20030;-78
2021/05/06 07:47:10;;;;;;;6.95;2.72;;;;;;;;;;4983315;28;20041;-77
2021/05/06 07:49:36;;;;;;;9.75;2.63;;;;;;;;;;5001340;28;20033;-77
2021/05/06 07:52:03;;;;;;;4.43;2.50;;;;;;;;;;4995358;28;20097;-77
2021/05/06 07:54:29;;;;;;;4.32;2.63;;;;;;;;;;4986097;28;20026;-77
2021/05/06 07:57:00;;;;;;;14.30;3.67;;;;;;;;;;4997568;28;20113;-77
2021/05/06 07:59:30;;;;;;;6.95;3.40;;;;;;;;;;5002159;28;20035;-77
2021/05/06 08:01:56;;;;;;;8.43;2.38;;;;;;;;;;4996723;28;20125;-77
2021/05/06 08:04:23;;;;;;;8.43;3.92;;;;;;;;;;4999091;28;20105;-77
2021/05/06 08:06:49;;;;;;;4.63;2.85;;;;;;;;;;4987814;28;20564;-77
2021/05/06 08:09:15;;;;;;;5.97;2.85;;;;;;;;;;4990943;28;20062;-77
2021/05/06 08:11:41;;;;;;;3.78;2.55;;;;;;;;;;4975320;28;20034;-76
2021/05/06 08:14:07;;;;;;;3.13;1.70;;;;;;;;;;4992105;28;20076;-75
2021/05/06 08:16:34;;;;;;;4.72;2.00;;;;;;;;;;4993031;28;20110;-76
2021/05/06 08:19:00;;;;;;;36.08;7.95;;;;;;;;;;4986370;28;20037;-76
2021/05/06 08:21:29;;;;;;;6.32;2.33;;;;;;;;;;4987966;28;20126;-76
2021/05/06 08:24:01;;;;;;;9.15;2.67;;;;;;;;;;4992258;28;20069;-72
2021/05/06 08:26:27;;;;;;;7.75;2.50;;;;;;;;;;4996561;28;20030;-77
2021/05/06 08:28:54;;;;;;;5.05;2.30;;;;;;;;;;4995872;28;20101;-73
2021/05/06 08:31:21;;;;;;;12.13;3.53;;;;;;;;;;4986967;28;20034;-76
2021/05/06 08:33:47;;;;;;;5.85;3.22;;;;;;;;;;4989979;28;20022;-77
2021/05/06 08:36:14;;;;;;;8.07;3.13;;;;;;;;;;5001301;28;20018;-77
2021/05/06 08:38:40;;;;;;;11.93;3.25;;;;;;;;;;4997400;28;20034;-76
2021/05/06 08:41:07;;;;;;;9.43;2.42;;;;;;;;;;4999401;28;20441;-77
2021/05/06 08:43:40;;;;;;;4.90;2.20;;;;;;;;;;4987157;28;20030;-78
2021/05/06 08:46:06;;;;;;;3.58;1.80;;;;;;;;;;4994545;28;20153;-75
2021/05/06 08:48:32;;;;;;;3.53;2.00;;;;;;;;;;4991298;28;20113;-75
2021/05/06 08:51:00;;;;;;;3.75;2.08;;;;;;;;;;4994870;28;20089;-75
2021/05/06 08:53:29;;;;;;;5.95;3.10;;;;;;;;;;4992080;28;20033;-75
2021/05/06 08:55:56;;;;;;;4.03;2.20;;;;;;;;;;4993634;28;20058;-74
2021/05/06 08:58:22;;;;;;;5.68;2.58;;;;;;;;;;4994353;28;20077;-74
2021/05/06 09:00:54;;;;;;;6.28;2.90;;;;;;;;;;4995820;28;20046;-75
2021/05/06 09:03:22;;;;;;;4.15;1.98;;;;;;;;;;4963417;28;20109;-74
2021/05/06 09:06:08;;;;;;;6.32;2.70;;;;;;;;;;4994179;28;20033;-73
2021/05/06 09:08:35;;;;;;;4.07;2.20;;;;;;;;;;4984334;28;20037;-74
2021/05/06 09:11:45;;;;;;;;;;;;;;;;;;;;;
2021/05/06 09:14:12;;;;;;;4.85;2.20;;;;;;;;;;4958164;28;20098;-76
2021/05/06 09:16:40;;;;;;;3.85;2.80;;;;;;;;;;4954396;28;20040;-75
2021/05/06 09:19:08;;;;;;;4.03;1.75;;;;;;;;;;4953274;28;20038;-75
2021/05/06 09:21:39;;;;;;;2.42;1.90;;;;;;;;;;4956226;29;20047;-78
2021/05/06 09:27:43;;;;;;;7.40;2.05;;;;;;;;;;4908558;29;20037;-77
2021/05/06 09:30:13;;;;;;;3.30;1.88;;;;;;;;;;4920380;29;20036;-71
2021/05/06 09:32:39;;;;;;;2.38;1.92;;;;;;;;;;4924297;29;20028;-70
2021/05/06 09:35:05;;;;;;;5.72;2.20;;;;;;;;;;4924180;29;20186;-73
2021/05/06 09:37:49;;;;;;;5.57;2.20;;;;;;;;;;4919898;29;20033;-74
2021/05/06 09:40:46;;;;;;;5.30;1.80;;;;;;;;;;4899039;29;20051;-77
2021/05/06 09:43:22;;;;;;;7.22;2.10;;;;;;;;;;4886795;29;20052;-77
2021/05/06 09:45:48;;;;;;;7.78;2.00;;;;;;;;;;4900964;29;20434;-78
2021/05/06 09:48:20;;;;;;;3.35;1.85;;;;;;;;;;4896294;29;20028;-77
2021/05/06 09:50:47;;;;;;;6.47;1.90;;;;;;;;;;4911366;29;20051;-77
2021/05/06 09:53:14;;;;;;;6.70;2.00;;;;;;;;;;4921851;29;20028;-77
2021/05/06 09:55:46;;;;;;;2.92;1.80;;;;;;;;;;4921597;29;20032;-76
2021/05/06 09:58:31;;;;;;;2.30;1.45;;;;;;;;;;4925036;29;20036;-72
2021/05/06 10:00:58;;;;;;;2.38;1.55;;;;;;;;;;4912243;29;20439;-73
2021/05/06 10:03:33;;;;;;;3.47;1.52;;;;;;;;;;4936705;29;20098;-74
2021/05/06 10:06:21;;;;;;;4.72;1.67;;;;;;;;;;4986445;28;20038;-72
2021/05/06 10:09:07;;;;;;;1.75;1.63;;;;;;;;;;4977334;28;20019;-73
2021/05/06 10:11:35;;;;;;;2.88;2.05;;;;;;;;;;4978047;28;20041;-74
2021/05/06 10:14:01;;;;;;;5.40;1.73;;;;;;;;;;4980332;28;20023;-75
2021/05/06 10:16:28;;;;;;;5.85;2.13;;;;;;;;;;4982106;28;20043;-73
2021/05/06 10:18:54;;;;;;;4.28;1.70;;;;;;;;;;4975299;28;20166;-75
2021/05/06 10:21:21;;;;;;;12.73;2.90;;;;;;;;;;4970926;28;20235;-76
2021/05/06 10:23:48;;;;;;;4.63;2.08;;;;;;;;;;4969791;28;20065;-76
2021/05/06 10:26:17;;;;;;;11.43;3.05;;;;;;;;;;4962008;28;20031;-76
2021/05/06 10:28:45;;;;;;;5.95;2.60;;;;;;;;;;4995169;28;20030;-76
2021/05/06 10:31:11;;;;;;;3.30;1.33;;;;;;;;;;4982842;28;20034;-76
2021/05/06 10:33:38;;;;;;;1.55;1.40;;;;;;;;;;4977235;28;20122;-75
2021/05/06 10:36:06;;;;;;;3.90;2.28;;;;;;;;;;4969662;28;20034;-74
2021/05/06 10:38:33;;;;;;;5.10;2.25;;;;;;;;;;4971612;28;20500;-75
2021/05/06 10:41:18;;;;;;;4.25;2.50;;;;;;;;;;4977475;28;20038;-74
2021/05/06 10:43:59;;;;;;;3.78;1.90;;;;;;;;;;4981742;28;20086;-78
2021/05/06 10:46:56;;;;;;;2.42;2.05;;;;;;;;;;4980181;28;20038;-75
2021/05/06 10:49:39;;;;;;;2.85;1.77;;;;;;;;;;4974068;28;20027;-74
2021/05/06 10:52:13;;;;;;;3.67;2.88;;;;;;;;;;4967619;28;20117;-73
2021/05/06 10:54:49;;;;;;;5.53;2.10;;;;;;;;;;4954911;28;20484;-75
2021/05/06 10:57:15;;;;;;;3.53;2.30;;;;;;;;;;4972510;28;20023;-75
2021/05/06 10:59:45;;;;;;;5.50;2.40;;;;;;;;;;5124555;23;20091;-74
2021/05/06 11:02:12;;;;;;;21.25;3.58;;;;;;;;;;5052494;28;20044;-76
2021/05/06 11:04:39;;;;;;;3.30;2.30;;;;;;;;;;5085707;28;20090;-75
2021/05/06 11:07:18;;;;;;;9.07;4.90;;;;;;;;;;5080081;28;20050;-75
2021/05/06 11:09:47;;;;;;;7.05;4.70;;;;;;;;;;5057361;28;20036;-75
2021/05/06 11:12:18;;;;;;;6.60;2.40;;;;;;;;;;5075364;28;20123;-76
2021/05/06 11:15:00;;;;;;;4.07;2.53;;;;;;;;;;5093561;28;20098;-74
2021/05/06 11:17:43;;;;;;;4.80;2.30;;;;;;;;;;5097655;28;20024;-76
2021/05/06 11:20:12;;;;;;;4.57;2.67;;;;;;;;;;5096563;28;20021;-75
2021/05/06 11:22:48;;;;;;;5.53;2.10;;;;;;;;;;5093883;28;20028;-76
2021/05/06 11:25:39;;;;;;;2.85;2.15;;;;;;;;;;5086179;28;20385;-76
2021/05/06 11:28:06;;;;;;;3.70;2.53;;;;;;;;;;5070442;28;20040;-76
2021/05/06 11:30:39;;;;;;;7.85;2.97;;;;;;;;;;5069082;28;20508;-75
2021/05/06 11:33:21;;;;;;;5.68;2.78;;;;;;;;;;5062022;28;20047;-74
2021/05/06 11:35:56;;;;;;;4.40;2.35;;;;;;;;;;5082704;28;20021;-75
2021/05/06 11:38:23;;;;;;;5.38;3.30;;;;;;;;;;5055612;28;20025;-75
2021/05/06 11:40:49;;;;;;;5.55;2.50;;;;;;;;;;5073734;28;20094;-75
2021/05/06 11:43:22;;;;;;;4.18;2.50;;;;;;;;;;5052582;28;20039;-74
2021/05/06 11:45:48;;;;;;;5.43;2.83;;;;;;;;;;5075044;28;20017;-74
2021/05/06 11:48:16;;;;;;;6.90;2.65;;;;;;;;;;5072581;28;20563;-75
2021/05/06 11:50:44;;;;;;;4.97;2.40;;;;;;;;;;5072400;28;20052;-75
2021/05/06 11:53:17;;;;;;;16.77;3.33;;;;;;;;;;5074824;28;20035;-76
2021/05/06 11:55:45;;;;;;;5.87;3.20;;;;;;;;;;5077682;28;20025;-76
2021/05/06 11:58:11;;;;;;;3.72;2.70;;;;;;;;;;5076193;28;20322;-76
2021/05/06 12:00:42;;;;;;;5.75;2.80;;;;;;;;;;5082781;28;20040;-74
2021/05/06 12:03:18;;;;;;;4.53;2.90;;;410.10;1331.20;;;;;;5076306;28;20067;-76
2021/05/06 12:05:59;;;;;;;5.35;2.60;;;410.20;1356.80;;;;;;5078380;28;20013;-75
2021/05/06 12:08:54;;;;;;;5.35;2.60;;;410.40;1331.20;;;;;;5065734;28;20037;-77
2021/05/06 12:11:21;;;;;;;5.90;3.05;;;410.50;1331.20;;;;;;4996072;28;20038;-77
2021/05/06 12:13:49;;;;;;;4.15;2.70;;;435.20;1331.20;;;;;;4997589;28;20026;-71
2021/05/06 12:16:27;;;;;;;6.72;2.78;;;435.20;1331.20;;;;;;4997433;28;20125;-76
2021/05/06 12:18:57;;;;;;;5.13;2.90;;;410.20;1382.40;;;;;;4988054;28;20065;-76
2021/05/06 12:21:46;;;;;;;4.60;2.95;;;410.10;1382.40;;;;;;4976419;28;20542;-71
2021/05/06 12:24:41;;;;;;;5.75;3.40;;;410.10;1382.40;;;;;;4993383;28;20026;-75
2021/05/06 12:27:23;;;;;;;6.93;2.97;;;;;;;;;;4982575;28;20085;-74
2021/05/06 12:29:50;;;;;;;4.50;2.90;;;;;;;;;;4984203;28;20105;-74
2021/05/06 12:32:33;;;;;;;7.10;3.10;;;;;;;;;;5004720;28;20121;-74
2021/05/06 12:34:59;;;;;;;;;;;;;;;;;;4999109;28;20045;-78
2021/05/06 12:37:29;;;;;;;20.90;3.55;;;;;;;;;;4994618;28;19909;-75
2021/05/06 12:39:56;;;;;;;6.68;3.00;;;;;;;;;;4995450;28;20062;-74
2021/05/06 12:42:32;;;;;;;4.47;2.97;;;;;;;;;;4990629;28;20061;-76
2021/05/06 12:44:58;;;;;;;6.32;3.40;;;;;;;;;;4990682;28;20030;-76
2021/05/06 12:47:27;;;;;;;6.00;3.50;;;;;;;;;;5021996;28;20033;-75
2021/05/06 12:53:07;;;;;;;4.43;3.13;;;;;;;;;;4993682;28;20025;-74
2021/05/06 12:55:43;;;;;;;6.90;2.80;;;;;;;;;;4988789;28;20035;-72
2021/05/06 12:58:13;;;;;;;4.57;3.13;;;;;;;;;;4995151;28;20066;-78
2021/05/06 13:00:58;;;;;;;4.40;3.00;;;;;;;;;;4990474;28;20547;-74
2021/05/06 13:03:41;;;;;;;6.28;3.35;;;;;;;;;;4978287;28;20065;-76
2021/05/06 13:06:19;;;;;;;5.97;3.00;;;;;;;;;;4974022;28;20046;-75
2021/05/06 13:08:48;;;;;;;5.50;3.20;;;;;;;;;;4971996;28;20042;-77
2021/05/06 13:11:29;;;;;;;6.10;3.05;;;;;;;;;;4972403;28;20151;-76
2021/05/06 13:14:30;;;;;;;7.18;3.10;;;;;;;;;;4995194;28;20034;-75
2021/05/06 13:16:56;;;;;;;5.40;3.20;;;;;;;;;;4955384;29;20047;-74
2021/05/06 13:19:52;;;;;;;6.45;3.58;;;;;;;;;;4953200;29;20564;-74
2021/05/06 13:22:19;;;;;;;9.00;3.25;;;;;;;;;;4925473;29;20055;-75
2021/05/06 13:24:46;;;;;;;5.38;3.08;;;;;;;;;;5029846;28;20096;-76
2021/05/06 13:27:30;;;;;;;10.80;3.20;;;;;;;;;;5036015;28;20025;-76
2021/05/06 13:29:57;;;;;;;5.82;3.10;;;;;;;;;;5020849;28;20091;-75
2021/05/06 13:32:41;;;;;;;5.97;3.10;;;;;;;;;;5035054;28;20034;-75
2021/05/06 13:35:37;;;;;;;8.43;3.20;;;;;;;;;;4992958;28;20030;-73
2021/05/06 13:38:10;;;;;;;7.00;3.40;;;;;;;;;;4971402;28;20109;-76
2021/05/06 13:40:38;;;;;;;14.40;4.22;;;;;;;;;;4990359;28;20480;-76
2021/05/06 13:43:04;;;;;;;13.55;3.80;;;;;;;;;;4995220;28;20472;-75
2021/05/06 13:45:32;;;;;;;5.72;3.35;;;;;;;;;;4989596;28;20027;-75
2021/05/06 13:48:20;;;;;;;7.35;3.35;;;;;;;;;;4950282;29;20035;-75
2021/05/06 13:50:46;;;;;;;6.05;3.80;;;;;;;;;;4948066;29;20039;-76
2021/05/06 13:53:12;;;;;;;7.35;3.17;;;;;;;;;;4927921;29;20035;-74
2021/05/06 13:55:39;;;;;;;8.10;3.58;;;;;;;;;;4953409;28;20060;-74
2021/05/06 13:58:05;;;;;;;11.68;3.67;;;;;;;;;;4947107;29;20156;-73
2021/05/06 14:00:31;;;;;;;5.20;3.35;;;;;;;;;;4941651;28;20051;-73
2021/05/06 14:02:57;;;;;;;6.50;3.20;;;;;;;;;;4951912;29;20066;-73
2021/05/06 14:05:23;;;;;;;6.80;3.75;;;;;;;;;;4945337;28;20102;-73
2021/05/06 14:07:50;;;;;;;6.00;3.40;;;;;;;;;;4948831;29;20038;-73
2021/05/06 14:10:16;;;;;;;8.88;3.45;;;;;;;;;;4949717;28;20050;-73
2021/05/06 14:12:42;;;;;;;7.20;3.72;;;;;;;;;;4973102;28;20117;-73
2021/05/06 14:15:08;;;;;;;6.53;3.42;;;;;;;;;;4989234;28;20026;-73
2021/05/06 14:17:34;;;;;;;5.70;3.78;;;;;;;;;;4989745;28;20210;-76
2021/05/06 14:20:03;;;;;;;8.20;4.07;;;;;;;;;;4991649;28;20038;-71
2021/05/06 14:22:29;;;;;;;7.03;3.40;;;;;;;;;;4990377;28;20105;-70
2021/05/06 14:25:03;;;;;;;5.88;3.33;;;;;;;;;;4990514;28;20080;-73
2021/05/06 14:27:29;;;;;;;5.07;3.47;;;;;;;;;;4991129;28;20080;-70
2021/05/06 14:29:59;;;;;;;17.50;4.10;;;;;;;;;;4991033;28;20042;-76
2021/05/06 14:32:25;;;;;;;8.30;3.72;;;;;;;;;;4991546;28;20034;-68
2021/05/06 14:34:54;;;;;;;8.90;3.55;;;;;;;;;;4987785;28;20679;-74
2021/05/06 14:37:24;;;;;;;5.72;3.30;;;;;;;;;;4992238;28;20034;-72
2021/05/06 14:39:59;;;;;;;5.45;3.03;;;;;;;;;;5067125;28;20506;-72
2021/05/06 14:42:26;;;;;;;7.32;3.17;;;;;;;;;;5050913;28;20044;-72
2021/05/06 14:44:52;;;;;;;7.05;3.00;;;;;;;;;;5068580;28;20044;-73
2021/05/06 14:47:18;;;;;;;6.68;3.03;;;;;;;;;;5072358;28;20512;-73
2021/05/06 14:49:44;;;;;;;7.70;3.42;;;;;;;;;;5054003;28;20024;-72
2021/05/06 14:52:10;;;;;;;7.75;3.70;;;;;;;;;;5069661;28;20028;-74
2021/05/06 14:54:36;;;;;;;4.90;2.90;;;;;;;;;;5070189;28;20025;-72
2021/05/06 14:57:04;;;;;;;8.55;3.67;;;;;;;;;;5033811;28;20036;-73
2021/05/06 14:59:30;;;;;;;5.30;3.60;;;;;;;;;;5062084;28;20034;-72
2021/05/06 15:01:56;;;;;;;6.70;3.25;;;;;;;;;;5063756;28;20063;-73
2021/05/06 15:04:27;;;;;;;4.60;3.10;;;;;;;;;;5052177;28;20845;-73
2021/05/06 15:06:53;;;;;;;5.80;3.50;;;;;;;;;;5057239;28;20425;-73
2021/05/06 15:09:21;;;;;;;6.28;3.20;;;;;;;;;;5077524;28;20036;-75
2021/05/06 15:11:48;;;;;;;10.38;3.63;;;;;;;;;;5063973;28;20016;-73
2021/05/06 15:14:14;;;;;;;7.72;3.72;;;;;;;;;;5081593;28;20028;-76
2021/05/06 15:16:40;;;;;;;5.68;2.92;;;;;;;;;;5083189;28;20112;-75
2021/05/06 15:19:08;;;;;;;5.70;3.00;;;;;;;;;;5073864;28;20499;-75
2021/05/06 15:21:34;;;;;;;6.10;3.13;;;;;;;;;;5067947;28;20073;-75
2021/05/06 15:24:00;;;;;;;8.30;3.35;;;;;;;;;;5071788;28;20029;-72
2021/05/06 15:26:26;;;;;;;7.32;3.22;;;;;;;;;;5073397;28;20020;-74
2021/05/06 15:28:53;;;;;;;8.00;3.20;;;;;;;;;;5074247;28;20079;-73
2021/05/06 15:31:19;;;;;;;12.82;3.38;;;;;;;;;;5074161;28;20082;-74
2021/05/06 15:33:46;;;;;;;7.57;3.30;;;;;;;;;;5070104;28;20039;-72
2021/05/06 15:36:16;;;;;;;7.38;3.10;;;;;;;;;;5073035;28;20483;-73
2021/05/06 15:38:47;;;;;;;5.40;3.13;;;;;;;;;;5067051;28;20090;-72
2021/05/06 15:41:14;;;;;;;5.82;3.17;;;;;;;;;;5070321;28;20036;-75
2021/05/06 15:43:40;;;;;;;4.50;2.92;;;;;;;;;;5053525;28;20032;-72
2021/05/06 15:46:08;;;;;;;6.00;2.80;;;;;;;;;;5053885;28;20135;-74
2021/05/06 15:48:35;;;;;;;11.30;3.42;;;;;;;;;;5052506;28;20386;-74
2021/05/06 15:51:01;;;;;;;6.80;3.10;;;;;;;;;;5065782;28;20024;-74
2021/05/06 15:53:28;;;;;;;3.78;2.83;;;;;;;;;;5074678;28;20029;-74
2021/05/06 15:56:01;;;;;;;8.52;3.42;;;;;;;;;;5073309;28;20063;-76
2021/05/06 15:58:27;;;;;;;7.90;3.20;;;;;;;;;;5076599;28;20430;-76
2021/05/06 16:00:59;;;;;;;6.68;3.25;;;;;;;;;;5074438;28;20048;-74
2021/05/06 16:03:32;;;;;;;4.68;2.97;;;;;;;;;;5075947;28;20036;-74
2021/05/06 16:05:58;;;;;;;5.67;3.03;;;;;;;;;;5066156;28;20036;-74
2021/05/06 16:08:42;;;;;;;4.70;2.85;;;;;;;;;;5074427;28;20421;-73
2021/05/06 16:11:09;;;;;;;4.05;2.75;;;;;;;;;;5054085;28;20164;-74
2021/05/06 16:13:37;;;;;;;6.53;2.75;;;;;;;;;;5071534;28;20506;-76
2021/05/06 16:16:18;;;;;;;4.20;2.83;;;;;;;;;;5072310;28;20489;-76
2021/05/06 16:19:00;;;;;;;5.15;2.72;;;;;;;;;;5048875;28;20477;-74
2021/05/06 16:21:44;;;;;;;4.53;2.72;;;;;;;;;;5053389;28;20052;-76
2021/05/06 16:24:12;;;;;;;4.40;2.40;;;;;;;;;;5054822;28;20051;-73
2021/05/06 16:26:38;;;;;;;7.03;2.60;;;;;;;;;;5068291;28;20106;-72
2021/05/06 16:29:04;;;;;;;10.82;2.97;;;;;;;;;;5070176;28;20031;-75
2021/05/06 16:31:31;;;;;;;6.60;3.00;;;;;;;;;;5069745;28;20045;-73
2021/05/06 16:34:05;;;;;;;4.63;2.83;;;;;;;;;;5073066;28;20070;-74
2021/05/06 16:36:53;;;;;;;8.23;3.53;;;;;;;;;;5029442;28;20558;-74
2021/05/06 16:42:13;;;;;;;5.57;2.78;;;;;;;;;;5032496;28;20049;-76
2021/05/06 16:44:45;;;;;;;5.07;2.92;;;;;;;;;;5035376;28;20034;-75
2021/05/06 16:47:11;;;;;;;9.82;5.88;;;;;;;;;;5035882;28;20037;-72
2021/05/06 16:49:46;;;;;;;8.80;3.13;;;;;;;;;;5035400;28;20065;-72
2021/05/06 16:52:12;;;;;;;4.35;2.67;;;;;;;;;;5035919;28;20038;-75
2021/05/06 16:54:41;;;;;;;8.35;2.78;;;;;;;;;;5035151;28;20025;-72
2021/05/06 16:57:07;;;;;;;11.25;2.97;;;;;;;;;;5033540;28;20136;-73
2021/05/06 16:59:38;;;;;;;6.78;2.97;;;;;;;;;;5034790;28;20029;-72
2021/05/06 17:02:07;;;;;;;7.10;3.03;;;;;;;;;;5010524;28;20057;-74
2021/05/06 17:04:42;;;;;;;5.50;2.90;;;;;;;;;;4989424;28;20018;-76
2021/05/06 17:07:08;;;;;;;6.13;3.30;;;;;;;;;;5021648;28;20046;-74
2021/05/06 17:09:46;;;;;;;5.78;2.80;;;;;;;;;;5029457;28;20026;-74
2021/05/06 17:12:12;;;;;;;11.48;3.05;;;;;;;;;;5029970;28;20087;-74
2021/05/06 17:14:39;;;;;;;5.05;3.00;;;;;;;;;;5036493;28;20033;-75
2021/05/06 17:17:06;;;;;;;7.28;2.97;;;;;;;;;;5052550;28;20045;-75
2021/05/06 17:19:34;;;;;;;7.13;2.85;;;;;;;;;;5057868;28;20032;-72
2021/05/06 17:22:01;;;;;;;8.20;2.92;;;;;;;;;;5050263;28;20080;-73
2021/05/06 17:24:32;;;;;;;4.78;2.90;;;;;;;;;;5052197;28;20051;-75
2021/05/06 17:26:59;;;;;;;8.50;3.30;;;;;;;;;;5045138;28;20082;-76
2021/05/06 17:29:26;;;;;;;8.07;2.92;;;;;;;;;;5032682;28;20045;-74
2021/05/06 17:31:52;;;;;;;7.10;3.10;;;;;;;;;;5056851;28;20025;-70
2021/05/06 17:34:18;;;;;;;3.72;2.83;;;;;;;;;;5055428;28;20028;-70
2021/05/06 17:36:44;;;;;;;6.78;3.28;;;;;;;;;;5049878;28;20041;-70
2021/05/06 17:39:11;;;;;;;10.50;3.60;;;;;;;;;;5045082;28;20485;-70
2021/05/06 17:41:40;;;;;;;6.93;3.67;;;;;;;;;;5056399;28;20116;-72
2021/05/06 17:44:08;;;;;;;10.75;3.90;;;;;;;;;;5053466;28;20094;-70
2021/05/06 17:46:34;;;;;;;9.23;3.58;;;;;;;;;;5052677;28;20489;-69
2021/05/06 17:49:03;;;;;;;14.18;5.00;;;;;;;;;;5039968;28;20021;-70
2021/05/06 17:51:29;;;;;;;10.95;6.40;;;;;;;;;;5047411;28;20055;-70
2021/05/06 17:53:55;;;;;;;25.50;16.48;;;;;;;;;;5053509;28;20032;-70
2021/05/06 17:56:21;;;;;;;95.45;56.42;;;;;;;;;;5054715;28;20029;-73
2021/05/06 17:58:54;;;;;;;105.47;57.95;;;;;;;;;;5037060;28;20627;-72
2021/05/06 18:01:24;;;;;;;51.15;25.92;;;;;;;;;;5076607;28;20041;-76
2021/05/06 18:03:59;;;;;;;24.10;12.00;;;;;;;;;;5058594;28;20032;-72
2021/05/06 18:06:43;;;;;;;128.85;70.72;;;;;;;;;;5053313;28;20521;-73
2021/05/06 18:09:09;;;;;;;325.88;229.77;;;410.10;1561.60;;;;;;5048845;28;20036;-71
2021/05/06 18:14:04;;;;;;;567.22;417.90;;;409.90;1587.20;;;;;;5053722;28;20079;-71
2021/05/06 18:16:29;;;;;;;595.25;456.83;;;409.90;1612.80;;;;;;5068327;28;20090;-71
2021/05/06 18:19:02;;;;;;;621.78;470.80;;;409.80;1587.20;;;;;;5072435;28;20021;-72
2021/05/06 18:21:29;;;;;;;54.75;37.22;;;;;;;;;;5070837;28;20037;-73
2021/05/06 18:23:56;;;;;;;84.93;51.83;;;;;;;;;;5073175;28;20036;-73
2021/05/06 18:26:22;;;;;;;328.20;181.32;;;;;;;;;;5054810;28;20028;-72
2021/05/06 18:28:52;;;;;;;260.85;164.73;;;;;;;;;;5068095;28;20032;-74